fusioninventory-agent [kinetic/arm64]

Version Triggers Date Duration Requester Result
1:2.6-2 libjson-pp-perl/4.10000-1 2022-06-25 19:15:34 UTC 0h 26m 16s - pass logartifacts
1:2.6-2 libwww-perl/6.67-1 2022-06-20 15:40:25 UTC 0h 19m 38s - pass logartifacts
1:2.6-2 libproc-daemon-perl/0.23-2 2022-06-18 11:29:17 UTC 0h 24m 30s - pass logartifacts
1:2.6-2 libsocket-getaddrinfo-perl/0.22-4 2022-06-18 08:06:10 UTC 0h 19m 27s - pass logartifacts
1:2.6-2 libnet-cups-perl/0.64-2 2022-06-17 14:09:57 UTC 0h 29m 10s - pass logartifacts
1:2.6-2 libnet-nbname-perl/0.26-3 2022-06-17 09:52:05 UTC 0h 27m 59s - pass logartifacts
1:2.6-2 libxml-treepp-perl/0.43-1.1 2022-06-15 18:47:53 UTC 0h 24m 09s - pass logartifacts
1:2.6-2 libsocket-getaddrinfo-perl/0.22-3.1 2022-06-15 18:31:01 UTC 0h 21m 32s - pass logartifacts
1:2.6-2 libproc-daemon-perl/0.23-1.1 2022-06-15 13:07:57 UTC 0h 20m 00s - pass logartifacts
1:2.6-2 usb.ids/2022.05.20-1 2022-06-11 08:01:08 UTC 0h 21m 19s - pass logartifacts
1:2.6-2 libjson-pp-perl/4.09000-1 2022-05-26 03:10:29 UTC 0h 26m 40s - pass logartifacts
1:2.6-2 libwww-perl/6.66-1 2022-05-22 08:09:37 UTC 0h 19m 37s - pass logartifacts
1:2.6-2 usb.ids/2022.05.09-1 2022-05-17 10:14:38 UTC 0h 19m 16s - pass logartifacts
1:2.6-2 libxml-xpath-perl/1.47-1 2022-05-16 01:43:45 UTC 0h 17m 55s - pass logartifacts
1:2.6-2 libwww-perl/6.65-1 2022-05-15 08:21:53 UTC 0h 22m 51s - pass logartifacts
1:2.6-2 libfile-which-perl/1.27-1 2022-05-10 03:10:48 UTC 0h 20m 49s - pass logartifacts
1:2.6-2 libwww-perl/6.64-1 2022-05-09 15:23:22 UTC 0h 17m 45s - pass logartifacts
1:2.6-2 libtext-template-perl/1.61-1 2022-05-09 15:12:13 UTC 0h 18m 57s - pass logartifacts
1:2.6-2 libjson-pp-perl/4.08000-1 2022-04-30 15:39:55 UTC 0h 21m 58s - pass logartifacts
1:2.6-2 libhttp-daemon-perl/6.14-1 2022-04-30 04:45:29 UTC 0h 23m 41s - pass logartifacts
1:2.6-2 pci.ids/0.0~2022.04.15-1 2022-04-29 23:40:04 UTC 0h 26m 31s - pass logartifacts
1:2.6-2 usb.ids/2022.04.02-1 2022-04-04 13:21:37 UTC 0h 26m 52s - pass logartifacts
1:2.6-2 migration-reference/0 2022-02-07 11:11:37 UTC 0h 09m 35s - pass logartifacts